createdAt,value
2022-12-08T00:00:23.130Z,6.22
2022-12-08T00:02:50.563Z,6.80
2022-12-08T00:05:36.620Z,7.32
2022-12-08T00:08:22.732Z,6.62
2022-12-08T00:10:50.218Z,7.05
2022-12-08T00:13:17.650Z,7.47
2022-12-08T00:15:44.630Z,6.85
2022-12-08T00:18:11.849Z,7.78
2022-12-08T00:20:39.197Z,7.00
2022-12-08T00:23:06.417Z,8.07
2022-12-08T00:25:36.501Z,7.28
2022-12-08T00:28:04.015Z,6.40
2022-12-08T00:30:30.987Z,7.68
2022-12-08T00:32:58.586Z,7.37
2022-12-08T00:35:25.867Z,7.87
2022-12-08T00:37:57.573Z,7.82
2022-12-08T00:40:28.049Z,7.62
2022-12-08T00:42:56.146Z,7.45
2022-12-08T00:45:23.190Z,7.30
2022-12-08T00:47:50.461Z,5.75
2022-12-08T00:50:17.460Z,6.20
2022-12-08T00:52:44.445Z,7.78
2022-12-08T00:55:11.726Z,6.62
2022-12-08T00:57:38.712Z,6.87
2022-12-08T01:00:06.821Z,7.70
2022-12-08T01:02:34.671Z,6.75
2022-12-08T01:05:01.716Z,6.60
2022-12-08T01:07:28.730Z,7.57
2022-12-08T01:09:57.714Z,6.60
2022-12-08T01:12:25.180Z,6.75
2022-12-08T01:14:52.158Z,7.22
2022-12-08T01:17:19.434Z,8.13
2022-12-08T01:19:46.431Z,6.95
2022-12-08T01:22:13.422Z,7.05
2022-12-08T01:24:40.716Z,7.25
2022-12-08T01:27:07.707Z,7.12
2022-12-08T01:29:34.813Z,6.85
2022-12-08T01:32:02.249Z,7.80
2022-12-08T01:34:29.260Z,7.05
2022-12-08T01:36:56.261Z,7.62
2022-12-08T01:39:23.593Z,7.82
2022-12-08T01:41:50.649Z,7.85
2022-12-08T01:44:17.585Z,7.90
2022-12-08T01:46:47.309Z,7.32
2022-12-08T01:49:24.076Z,8.02
2022-12-08T01:52:02.546Z,7.87
2022-12-08T01:54:32.457Z,7.25
2022-12-08T01:57:06.371Z,7.62
2022-12-08T01:59:36.583Z,7.05
2022-12-08T02:02:04.037Z,7.10
2022-12-08T02:04:31.343Z,7.93
2022-12-08T02:07:01.445Z,8.07
2022-12-08T02:09:32.312Z,7.12
2022-12-08T02:11:59.895Z,6.45
2022-12-08T02:14:26.996Z,7.40
2022-12-08T02:17:28.278Z,6.75
2022-12-08T02:20:21.703Z,7.20
2022-12-08T02:23:01.075Z,7.57
2022-12-08T02:25:54.349Z,8.48
2022-12-08T02:28:49.096Z,7.40
2022-12-08T02:31:33.084Z,7.93
2022-12-08T02:34:29.664Z,8.43
2022-12-08T02:37:20.947Z,9.20
2022-12-08T02:39:56.812Z,8.43
2022-12-08T02:42:44.942Z,8.63
2022-12-08T02:45:22.300Z,8.13
2022-12-08T02:47:49.795Z,7.30
2022-12-08T02:50:17.052Z,6.57
2022-12-08T02:52:47.950Z,7.30
2022-12-08T02:55:18.661Z,6.97
2022-12-08T02:58:04.038Z,7.60
2022-12-08T03:00:43.842Z,7.90
2022-12-08T03:03:32.905Z,7.93
2022-12-08T03:06:22.211Z,7.32
2022-12-08T03:09:00.013Z,8.52
2022-12-08T03:11:36.205Z,7.95
2022-12-08T03:14:05.036Z,7.15
2022-12-08T03:16:34.181Z,7.07
2022-12-08T03:19:09.254Z,6.68
2022-12-08T03:21:37.572Z,7.25
2022-12-08T03:24:07.584Z,8.10
2022-12-08T03:26:47.299Z,7.60
2022-12-08T03:29:14.832Z,6.72
2022-12-08T03:31:46.690Z,6.95
2022-12-08T03:34:14.285Z,6.62
2022-12-08T03:36:41.720Z,7.10
2022-12-08T03:39:08.797Z,6.97
2022-12-08T03:41:35.846Z,7.80
2022-12-08T03:44:03.122Z,6.47
2022-12-08T03:48:57.352Z,7.97
2022-12-08T03:51:24.911Z,7.62
2022-12-08T03:53:51.902Z,7.45
2022-12-08T03:56:35.069Z,6.87
2022-12-08T03:59:03.327Z,7.15
2022-12-08T04:01:30.620Z,8.00
2022-12-08T04:03:58.244Z,8.25
2022-12-08T04:06:25.411Z,9.07
2022-12-08T04:08:52.563Z,8.27
2022-12-08T04:11:20.068Z,8.48
2022-12-08T04:13:47.346Z,7.97
2022-12-08T04:16:20.847Z,8.20
2022-12-08T04:18:48.325Z,9.63
2022-12-08T04:21:15.507Z,9.65
2022-12-08T04:23:42.718Z,9.10
2022-12-08T04:26:10.088Z,8.25
2022-12-08T04:28:37.249Z,8.60
2022-12-08T04:31:04.945Z,7.82
2022-12-08T04:33:32.247Z,8.80
2022-12-08T04:35:59.237Z,8.73
2022-12-08T04:38:26.984Z,9.00
2022-12-08T04:40:54.559Z,7.75
2022-12-08T04:43:21.551Z,8.13
2022-12-08T04:45:48.550Z,8.77
2022-12-08T04:48:16.097Z,13.18
2022-12-08T04:50:44.788Z,11.20
2022-12-08T04:53:12.469Z,8.82
2022-12-08T04:55:41.930Z,8.38
2022-12-08T04:58:12.750Z,9.98
2022-12-08T05:00:41.274Z,10.85
2022-12-08T05:03:08.527Z,9.70
2022-12-08T05:05:35.715Z,12.37
2022-12-08T05:08:03.106Z,11.48
2022-12-08T05:10:30.147Z,10.77
2022-12-08T05:12:58.877Z,10.82
2022-12-08T05:15:26.198Z,11.20
2022-12-08T05:17:53.344Z,10.50
2022-12-08T05:20:20.327Z,10.05
2022-12-08T05:22:47.610Z,10.77
2022-12-08T05:25:14.989Z,10.23
2022-12-08T05:27:43.098Z,11.95
2022-12-08T05:30:10.541Z,11.82
2022-12-08T05:32:37.597Z,13.15
2022-12-08T05:35:04.832Z,12.60
2022-12-08T05:37:32.184Z,12.65
2022-12-08T05:39:59.273Z,12.73
2022-12-08T05:42:26.293Z,13.52
2022-12-08T05:44:53.569Z,13.52
2022-12-08T05:47:20.542Z,12.68
2022-12-08T05:49:47.568Z,11.93
2022-12-08T05:52:16.903Z,13.10
2022-12-08T05:54:44.316Z,12.32
2022-12-08T05:57:11.575Z,12.23
2022-12-08T05:59:39.294Z,11.85
2022-12-08T06:02:06.411Z,12.88
2022-12-08T06:04:33.788Z,12.23
2022-12-08T06:07:00.835Z,12.18
2022-12-08T06:09:27.832Z,12.25
2022-12-08T06:11:55.104Z,11.85
2022-12-08T06:14:22.137Z,11.50
2022-12-08T06:16:49.199Z,12.35
2022-12-08T06:19:16.564Z,15.20
2022-12-08T06:21:43.544Z,12.85
2022-12-08T06:24:10.543Z,13.52
2022-12-08T06:26:37.977Z,13.40
2022-12-08T06:29:05.076Z,13.10
2022-12-08T06:31:32.111Z,13.32
2022-12-08T06:33:59.419Z,15.10
2022-12-08T06:36:27.999Z,14.02
2022-12-08T06:38:55.356Z,16.05
2022-12-08T06:41:22.648Z,14.20
2022-12-08T06:43:49.677Z,14.48
2022-12-08T06:46:18.826Z,14.68
2022-12-08T06:48:46.528Z,15.23
2022-12-08T06:51:19.191Z,15.55
2022-12-08T06:53:47.121Z,15.10
2022-12-08T06:56:15.880Z,14.50
2022-12-08T06:58:46.149Z,13.60
2022-12-08T07:01:17.918Z,16.05
2022-12-08T07:03:44.994Z,13.57
2022-12-08T07:06:16.963Z,13.45
2022-12-08T07:08:44.287Z,13.57
2022-12-08T07:11:15.309Z,14.35
2022-12-08T07:16:13.121Z,15.05
2022-12-08T07:18:41.589Z,15.18
2022-12-08T07:21:13.990Z,14.32
2022-12-08T07:23:41.196Z,15.30
2022-12-08T07:26:11.058Z,15.35
2022-12-08T07:28:39.777Z,13.98
2022-12-08T07:31:08.083Z,14.15
2022-12-08T07:33:36.182Z,14.82
2022-12-08T07:36:07.721Z,14.25
2022-12-08T07:38:34.693Z,12.95
2022-12-08T07:41:02.328Z,13.40
2022-12-08T07:43:29.361Z,13.43
2022-12-08T07:45:56.424Z,14.95
2022-12-08T07:48:23.746Z,12.88
2022-12-08T07:50:50.705Z,13.38
2022-12-08T07:53:17.740Z,12.57
2022-12-08T07:55:45.106Z,13.45
2022-12-08T07:58:12.156Z,12.60
2022-12-08T08:00:39.191Z,13.20
2022-12-08T08:03:08.866Z,13.10
2022-12-08T08:05:35.982Z,13.98
2022-12-08T08:08:03.158Z,15.68
2022-12-08T08:10:30.563Z,12.90
2022-12-08T08:13:00.767Z,13.60
2022-12-08T08:15:28.200Z,13.00
2022-12-08T08:17:55.570Z,14.35
2022-12-08T08:20:22.810Z,12.15
2022-12-08T08:22:50.872Z,12.68
2022-12-08T08:25:24.245Z,13.43
2022-12-08T08:27:51.281Z,12.13
2022-12-08T08:30:20.912Z,11.93
2022-12-08T08:32:49.202Z,12.75
2022-12-08T08:35:16.743Z,12.82
2022-12-08T08:37:48.586Z,13.27
2022-12-08T08:40:17.719Z,14.27
2022-12-08T08:42:45.143Z,12.88
2022-12-08T08:45:12.196Z,13.80
2022-12-08T08:47:39.175Z,11.70
2022-12-08T08:50:07.769Z,10.77
2022-12-08T08:52:35.098Z,12.02
2022-12-08T08:55:02.176Z,11.38
2022-12-08T08:57:29.456Z,12.07
2022-12-08T08:59:56.449Z,11.52
2022-12-08T09:02:23.495Z,11.55
2022-12-08T09:04:50.998Z,11.52
2022-12-08T09:07:18.014Z,11.65
2022-12-08T09:09:45.061Z,11.18
2022-12-08T09:12:12.871Z,9.75
2022-12-08T09:14:40.231Z,10.90
2022-12-08T09:17:10.107Z,10.20
2022-12-08T09:19:37.630Z,9.98
2022-12-08T09:22:05.241Z,10.50
2022-12-08T09:24:32.211Z,10.10
2022-12-08T09:26:59.649Z,10.82
2022-12-08T09:29:31.053Z,10.57
2022-12-08T09:32:01.470Z,10.20
2022-12-08T09:34:28.622Z,11.32
2022-12-08T09:36:55.640Z,11.20
2022-12-08T09:39:23.830Z,10.60
2022-12-08T09:41:56.360Z,11.35
2022-12-08T09:44:51.701Z,11.18
2022-12-08T09:47:35.251Z,9.82
2022-12-08T09:50:22.522Z,10.45
2022-12-08T09:53:14.226Z,10.10
2022-12-08T09:55:45.768Z,10.52
2022-12-08T09:58:21.231Z,10.93
2022-12-08T10:00:48.550Z,10.43
2022-12-08T10:03:17.044Z,10.77
2022-12-08T10:05:59.116Z,11.20
2022-12-08T10:08:33.386Z,10.88
2022-12-08T10:11:05.104Z,12.63
2022-12-08T10:13:57.551Z,10.68
2022-12-08T10:16:32.474Z,12.07
2022-12-08T10:19:10.692Z,10.73
2022-12-08T10:21:39.433Z,11.57
2022-12-08T10:24:13.692Z,12.32
2022-12-08T10:26:40.733Z,11.98
2022-12-08T10:29:14.764Z,10.00
2022-12-08T10:31:42.066Z,10.68
2022-12-08T10:34:18.809Z,11.68
2022-12-08T10:36:50.259Z,10.88
2022-12-08T10:39:29.670Z,10.23
2022-12-08T10:42:02.868Z,10.80
2022-12-08T10:44:30.316Z,11.30
2022-12-08T10:46:57.469Z,11.57
2022-12-08T10:49:32.372Z,12.75
2022-12-08T10:51:59.734Z,11.02
2022-12-08T10:54:34.505Z,10.15
2022-12-08T10:57:01.821Z,11.52
2022-12-08T10:59:29.281Z,10.15
2022-12-08T11:01:56.929Z,11.20
2022-12-08T11:04:30.844Z,11.55
2022-12-08T11:06:57.853Z,10.98
2022-12-08T11:09:49.113Z,12.00
2022-12-08T11:12:18.110Z,10.35
2022-12-08T11:14:45.878Z,9.80
2022-12-08T11:17:16.152Z,10.02
2022-12-08T11:19:56.348Z,10.52
2022-12-08T11:22:38.036Z,12.07
2022-12-08T11:25:07.790Z,11.73
2022-12-08T11:27:36.794Z,9.93
2022-12-08T11:30:27.512Z,10.27
2022-12-08T11:32:56.685Z,9.77
2022-12-08T11:35:30.175Z,10.90
2022-12-08T11:38:20.499Z,10.02
2022-12-08T11:40:50.744Z,9.32
2022-12-08T11:43:22.815Z,10.05
2022-12-08T11:46:04.732Z,8.73
2022-12-08T11:48:46.414Z,9.25
2022-12-08T11:51:29.719Z,9.00
2022-12-08T11:54:09.075Z,8.48
2022-12-08T11:56:41.789Z,8.40
2022-12-08T11:59:29.951Z,9.50
2022-12-08T12:02:01.446Z,8.43
2022-12-08T12:04:50.173Z,8.50
2022-12-08T12:07:36.165Z,8.10
2022-12-08T12:10:12.423Z,7.72
2022-12-08T12:12:49.871Z,8.02
2022-12-08T12:15:32.334Z,8.48
2022-12-08T12:17:59.263Z,9.40
2022-12-08T12:20:46.998Z,9.27
2022-12-08T12:23:24.712Z,8.98
2022-12-08T12:26:00.523Z,7.70
2022-12-08T12:28:33.279Z,9.50
2022-12-08T12:31:07.491Z,8.80
2022-12-08T12:33:35.720Z,9.27
2022-12-08T12:36:05.681Z,10.63
2022-12-08T12:38:57.916Z,9.45
2022-12-08T12:41:32.427Z,9.48
2022-12-08T12:46:51.112Z,9.18
2022-12-08T12:49:40.211Z,9.38
2022-12-08T12:52:10.551Z,8.40
2022-12-08T12:54:43.174Z,8.80
2022-12-08T12:57:10.463Z,10.63
2022-12-08T12:59:46.165Z,9.90
2022-12-08T13:02:21.899Z,9.05
2022-12-08T13:04:54.697Z,8.30
2022-12-08T13:07:25.341Z,8.50
2022-12-08T13:10:11.713Z,16.08
2022-12-08T13:12:39.116Z,14.00
2022-12-08T13:15:07.250Z,11.32
2022-12-08T13:17:36.368Z,11.95
2022-12-08T13:20:06.578Z,9.95
2022-12-08T13:23:01.925Z,8.70
2022-12-08T13:25:44.554Z,9.02
2022-12-08T13:28:21.577Z,8.93
2022-12-08T13:30:50.522Z,8.80
2022-12-08T13:33:40.812Z,8.93
2022-12-08T13:36:33.031Z,10.30
2022-12-08T13:39:00.107Z,10.65
2022-12-08T13:41:39.267Z,11.10
2022-12-08T13:47:32.421Z,11.63
2022-12-08T13:59:29.924Z,11.90
2022-12-08T14:02:17.560Z,10.88
2022-12-08T14:05:16.774Z,10.80
2022-12-08T14:07:34.581Z,11.57
2022-12-08T14:10:03.626Z,10.13
2022-12-08T14:12:31.379Z,11.00
2022-12-08T14:15:03.663Z,10.68
2022-12-08T14:17:32.472Z,10.52
2022-12-08T14:20:06.757Z,11.68
2022-12-08T14:22:39.418Z,9.55
2022-12-08T14:25:11.482Z,9.98
2022-12-08T14:27:38.888Z,10.95
2022-12-08T14:30:08.755Z,9.77
2022-12-08T14:32:39.556Z,10.50
2022-12-08T14:35:06.950Z,10.35
2022-12-08T14:37:36.936Z,10.75
2022-12-08T14:40:24.063Z,9.90
2022-12-08T14:42:54.073Z,10.40
2022-12-08T14:45:21.303Z,10.48
2022-12-08T14:47:48.713Z,12.30
2022-12-08T14:50:41.987Z,12.60
2022-12-08T14:53:17.374Z,12.82
2022-12-08T14:55:47.671Z,14.30
2022-12-08T14:58:30.468Z,15.50
2022-12-08T15:00:58.812Z,13.38
2022-12-08T15:03:30.510Z,13.25
2022-12-08T15:06:00.355Z,11.95
2022-12-08T15:08:27.618Z,13.13
2022-12-08T15:11:22.819Z,10.55
2022-12-08T15:13:51.845Z,10.25
2022-12-08T15:16:43.101Z,10.32
2022-12-08T15:19:23.271Z,11.73
2022-12-08T15:21:51.018Z,13.45
2022-12-08T15:24:26.017Z,11.63
2022-12-08T15:26:53.775Z,9.88
2022-12-08T15:29:25.976Z,11.68
2022-12-08T15:31:55.563Z,10.63
2022-12-08T15:34:23.198Z,11.68
2022-12-08T15:36:51.523Z,11.10
2022-12-08T15:39:25.126Z,11.65
2022-12-08T15:41:52.750Z,10.55
2022-12-08T15:44:19.721Z,9.82
2022-12-08T15:46:46.857Z,10.82
2022-12-08T15:49:18.959Z,11.70
2022-12-08T15:51:45.981Z,10.80
2022-12-08T15:54:13.215Z,11.12
2022-12-08T15:57:10.905Z,10.38
2022-12-08T15:59:33.273Z,9.88
2022-12-08T16:02:00.627Z,9.95
2022-12-08T16:05:17.845Z,11.20
2022-12-08T16:07:38.040Z,10.75
2022-12-08T16:10:07.090Z,10.50
2022-12-08T16:16:00.661Z,10.38
2022-12-08T16:18:33.265Z,10.38
2022-12-08T16:21:41.704Z,11.12
2022-12-08T16:23:48.288Z,10.57
2022-12-08T16:26:39.338Z,8.85
2022-12-08T16:29:05.844Z,7.93
2022-12-08T16:31:33.448Z,8.82
2022-12-08T16:34:01.594Z,8.05
2022-12-08T16:36:28.574Z,8.60
2022-12-08T16:38:55.852Z,9.68
2022-12-08T16:41:44.374Z,10.20
2022-12-08T16:44:11.623Z,11.50
2022-12-08T16:46:39.177Z,12.65
2022-12-08T16:49:08.497Z,10.82
2022-12-08T16:51:35.776Z,9.48
2022-12-08T16:54:02.828Z,11.85
2022-12-08T16:56:33.209Z,11.77
2022-12-08T16:59:01.954Z,10.07
2022-12-08T17:01:29.329Z,11.70
2022-12-08T17:04:22.962Z,9.95
2022-12-08T17:06:43.791Z,9.70
2022-12-08T17:09:10.787Z,9.68
2022-12-08T17:11:42.943Z,10.90
2022-12-08T17:14:14.082Z,10.73
2022-12-08T17:16:41.707Z,9.80
2022-12-08T17:19:09.364Z,10.68
2022-12-08T17:21:36.661Z,10.48
2022-12-08T17:24:04.591Z,9.52
2022-12-08T17:26:31.720Z,9.00
2022-12-08T17:29:01.835Z,9.75
2022-12-08T17:31:31.447Z,7.10
2022-12-08T17:34:03.886Z,8.13
2022-12-08T17:36:31.353Z,6.82
2022-12-08T17:39:00.336Z,7.90
2022-12-08T17:41:28.071Z,8.85
2022-12-08T17:43:55.216Z,8.60
2022-12-08T17:46:23.449Z,6.82
2022-12-08T17:48:50.474Z,7.37
2022-12-08T17:51:17.751Z,7.10
2022-12-08T17:53:45.554Z,7.90
2022-12-08T17:56:20.995Z,11.32
2022-12-08T17:58:53.998Z,9.93
2022-12-08T18:01:22.946Z,8.32
2022-12-08T18:03:50.806Z,7.05
2022-12-08T18:06:17.856Z,8.05
2022-12-08T18:08:45.106Z,7.43
2022-12-08T18:11:15.062Z,7.95
2022-12-08T18:13:42.219Z,8.18
2022-12-08T18:16:09.257Z,8.18
2022-12-08T18:18:37.678Z,7.80
2022-12-08T18:21:04.835Z,8.65
2022-12-08T18:23:31.958Z,8.63
2022-12-08T18:25:59.445Z,7.28
2022-12-08T18:28:26.508Z,8.15
2022-12-08T18:30:53.552Z,7.95
2022-12-08T18:33:22.811Z,7.87
2022-12-08T18:35:50.103Z,8.27
2022-12-08T18:38:17.104Z,8.48
2022-12-08T18:40:47.556Z,8.63
2022-12-08T18:43:14.554Z,8.68
2022-12-08T18:45:41.628Z,8.32
2022-12-08T18:48:08.944Z,8.82
2022-12-08T18:50:35.949Z,8.73
2022-12-08T18:53:02.972Z,8.80
2022-12-08T18:55:30.265Z,9.18
2022-12-08T18:57:57.294Z,9.35
2022-12-08T19:00:25.475Z,10.00
2022-12-08T19:02:52.814Z,9.75
2022-12-08T19:05:19.906Z,9.52
2022-12-08T19:07:47.004Z,10.75
2022-12-08T19:10:14.485Z,10.48
2022-12-08T19:12:41.560Z,10.70
2022-12-08T19:15:09.252Z,9.15
2022-12-08T19:17:36.773Z,9.48
2022-12-08T19:20:05.184Z,9.05
2022-12-08T19:22:32.543Z,10.35
2022-12-08T19:24:59.940Z,9.60
2022-12-08T19:27:28.022Z,10.93
2022-12-08T19:29:55.883Z,10.82
2022-12-08T19:32:23.158Z,9.82
2022-12-08T19:34:50.267Z,10.75
2022-12-08T19:37:17.258Z,9.82
2022-12-08T19:40:03.178Z,12.10
2022-12-08T19:42:49.008Z,10.13
2022-12-08T19:45:21.480Z,10.00
2022-12-08T19:47:48.937Z,10.05
2022-12-08T19:50:35.576Z,11.05
2022-12-08T19:53:11.211Z,9.85
2022-12-08T19:55:38.947Z,10.05
2022-12-08T19:58:06.899Z,10.68
2022-12-08T20:00:35.238Z,10.52
2022-12-08T20:03:03.400Z,10.50
2022-12-08T20:05:31.348Z,10.68
2022-12-08T20:07:58.367Z,11.52
2022-12-08T20:10:29.263Z,11.15
2022-12-08T20:13:16.754Z,10.38
2022-12-08T20:15:44.625Z,10.65
2022-12-08T20:18:12.797Z,11.52
2022-12-08T20:20:41.222Z,11.30
2022-12-08T20:23:08.767Z,10.23
2022-12-08T20:25:41.307Z,11.90
2022-12-08T20:28:08.853Z,11.07
2022-12-08T20:30:38.740Z,11.50
2022-12-08T20:33:05.777Z,11.77
2022-12-08T20:35:33.686Z,11.00
2022-12-08T20:38:00.752Z,10.93
2022-12-08T20:40:27.764Z,12.68
2022-12-08T20:42:56.309Z,12.98
2022-12-08T20:45:23.281Z,11.57
2022-12-08T20:47:50.406Z,11.18
2022-12-08T20:50:17.818Z,12.25
2022-12-08T20:52:44.893Z,11.60
2022-12-08T20:55:11.935Z,10.68
2022-12-08T20:57:39.230Z,12.10
2022-12-08T21:00:08.596Z,11.70
2022-12-08T21:02:36.033Z,12.07
2022-12-08T21:05:04.853Z,13.70
2022-12-08T21:07:33.708Z,12.00
2022-12-08T21:10:01.138Z,13.57
2022-12-08T21:12:28.666Z,12.65
2022-12-08T21:14:55.746Z,13.57
2022-12-08T21:17:22.921Z,14.70
2022-12-08T21:19:50.461Z,13.90
2022-12-08T21:22:17.583Z,14.10
2022-12-08T21:24:44.684Z,13.65
2022-12-08T21:27:11.971Z,14.07
2022-12-08T21:29:39.031Z,14.93
2022-12-08T21:32:06.289Z,13.70
2022-12-08T21:34:34.220Z,14.80
2022-12-08T21:37:02.135Z,14.30
2022-12-08T21:39:29.267Z,14.57
2022-12-08T21:42:14.950Z,15.00
2022-12-08T21:44:42.101Z,13.77
2022-12-08T21:47:09.436Z,15.05
2022-12-08T21:49:36.544Z,15.10
2022-12-08T21:52:03.709Z,15.13
2022-12-08T21:54:31.288Z,15.68
2022-12-08T21:56:58.362Z,15.52
2022-12-08T21:59:25.389Z,17.17
2022-12-08T22:01:52.777Z,15.38
2022-12-08T22:04:21.842Z,15.23
2022-12-08T22:06:49.148Z,15.45
2022-12-08T22:09:16.415Z,16.42
2022-12-08T22:11:44.483Z,16.15
2022-12-08T22:14:14.928Z,14.85
2022-12-08T22:16:43.290Z,15.80
2022-12-08T22:19:11.392Z,17.00
2022-12-08T22:21:38.553Z,16.35
2022-12-08T22:24:06.216Z,16.40
2022-12-08T22:26:34.003Z,16.75
2022-12-08T22:29:01.438Z,17.30
2022-12-08T22:31:28.502Z,15.32
2022-12-08T22:33:56.060Z,17.02
2022-12-08T22:36:25.043Z,16.42
2022-12-08T22:38:53.409Z,17.65
2022-12-08T22:41:22.165Z,16.02
2022-12-08T22:43:50.205Z,17.17
2022-12-08T22:46:23.302Z,17.80
2022-12-08T22:48:51.508Z,17.15
2022-12-08T22:51:19.297Z,15.73
2022-12-08T22:53:47.130Z,16.33
2022-12-08T22:56:15.368Z,16.83
2022-12-08T22:58:43.053Z,19.30
2022-12-08T23:01:25.441Z,15.95
2022-12-08T23:03:53.277Z,17.42
2022-12-08T23:06:20.681Z,17.60
2022-12-08T23:08:48.279Z,16.42
2022-12-08T23:11:15.661Z,17.62
2022-12-08T23:13:42.672Z,17.73
2022-12-08T23:16:10.973Z,16.12
2022-12-08T23:18:44.446Z,18.10
2022-12-08T23:21:15.826Z,16.42
2022-12-08T23:23:43.142Z,17.58
2022-12-08T23:26:25.167Z,16.95
2022-12-08T23:28:52.780Z,17.10
2022-12-08T23:31:20.257Z,18.30
2022-12-08T23:33:47.859Z,17.70
2022-12-08T23:36:16.563Z,18.98
2022-12-08T23:38:43.812Z,18.98
2022-12-08T23:41:12.345Z,17.83
2022-12-08T23:43:44.446Z,18.10
2022-12-08T23:46:11.789Z,18.30
2022-12-08T23:48:38.888Z,19.25
2022-12-08T23:51:06.446Z,17.60
2022-12-08T23:53:33.695Z,19.48
2022-12-08T23:56:02.348Z,18.80
2022-12-08T23:58:30.876Z,18.70
